Denver, CO

5:54 AM MST on December 18, 2014 (GMT -0700)
Geography and Env. Sciences, CU Denver | Change Station
CLOSE
Current Station
Personal Weather Station
Location: Denver, CO
Elevation: 5225 ft
Nearby Weather Stations

Elev 5225 ft 39.75 °N, 105.00 °W | Updated 4 minutes ago

Partly Cloudy
Partly Cloudy
29.2 °F
Feels Like 29 °F
N
0.0
Wind Variable Wind from South
Gusts 17.0 mph

Today
High -- | Low -- °F
--% Chance of Precip.
Yesterday
High -- | Low -- °F
Precip. -- in
7:15 AM 4:37 PM
Waning Crescent, 14% visible
Pressure 30.04 in
Visibility 8.0 miles
Clouds Few 6000 ft
Scattered Clouds 16000 ft
Windchill 29 °F
Dew Point 25 °F
Humidity 85%
Rainfall 0.00 in
Snow Depth Not available.
UV 0.0 out of 12
Pollen .10 out of 12
Air Quality Not available.
Flu Activity Not available.
METAR KAPA 181153Z 17006KT 8SM FEW060 SCT160 M02/M03 A2997 RMK AO2 SLP170 T10221033 11006 21044 51001

More Conditions Fewer Conditions

Pressure 30.04 in
Visibility 8.0 miles
Clouds Few 6000 ft
Scattered Clouds 16000 ft
Windchill 29 °F
Dew Point 25 °F
Humidity 85%
Rainfall 0.00 in
Snow Depth Not available.
UV 0.0 out of 12
Pollen .10 out of 12
Air Quality Not available.
Flu Activity Not available.
METAR KAPA 181153Z 17006KT 8SM FEW060 SCT160 M02/M03 A2997 RMK AO2 SLP170 T10221033 11006 21044 51001

More Conditions Fewer Conditions

10-Day Weather Forecast

Almanac

Astronomy

Dec. 18, 2014 Rise Set
Actual Time
Civil Twilight
Nautical Twilight
Astronomical Twilight
Moon
Length of Visible Light
Length of Day
Tomorrow will be .
, % of the Moon is Illuminated

Today's Extremes

State Highs State Lows

Community

WunderPhotos

Upload Photos

1,778,923 photos uploaded!

WunderBlogs® & News

Nearby

Air Quality

  Air Quality AQ Index Pollutant
Not available.

Snow Depth

Station Depth Elevation

Earthquake Activity

City Distance Mag. Time & Date
Minimum magnitude displayed is 2.5.

Coastal Water Temperatures

Place Temperature

Nearby Weather Stations